Terminal Aerodrome Forecast
Issued by NWS Atlanta, GA

Home | Current Version | Previous Version | Text Only | Print | Product List | Glossary On
Versions: 1 2 3 4 5 6 7 8 9 10 11 12 13 14 15 16 17
000
FTUS42 KFFC 081725
TAFMCN
TAF
KMCN 081725Z 0818/0918 32013G23KT P6SM SCT050 BKN120
     FM090000 33011KT P6SM SCT120 BKN250
     FM091000 33009KT P6SM BKN200
     FM091500 34010G20KT P6SM SCT250=

USA.gov is the U.S. government's official web portal to all federal, state and local government web resources and services.